sensor_id;sensor_type;location;lat;lon;timestamp;temperature;humidity
68385;DHT22;55336;43.062;25.626;2022-12-07T00:01:05;5.20;99.90
68385;DHT22;55336;43.062;25.626;2022-12-07T00:03:32;5.10;99.90
68385;DHT22;55336;43.062;25.626;2022-12-07T00:05:58;5.20;99.90
68385;DHT22;55336;43.062;25.626;2022-12-07T00:08:26;5.20;99.90
68385;DHT22;55336;43.062;25.626;2022-12-07T00:10:52;5.30;99.90
68385;DHT22;55336;43.062;25.626;2022-12-07T00:13:19;5.20;99.90
68385;DHT22;55336;43.062;25.626;2022-12-07T00:15:45;5.20;99.90
68385;DHT22;55336;43.062;25.626;2022-12-07T00:18:13;5.20;99.90
68385;DHT22;55336;43.062;25.626;2022-12-07T00:20:39;5.20;99.90
68385;DHT22;55336;43.062;25.626;2022-12-07T00:23:05;5.30;99.90
68385;DHT22;55336;43.062;25.626;2022-12-07T00:25:31;5.30;99.90
68385;DHT22;55336;43.062;25.626;2022-12-07T00:27:57;5.30;99.90
68385;DHT22;55336;43.062;25.626;2022-12-07T00:30:23;5.30;99.90
68385;DHT22;55336;43.062;25.626;2022-12-07T00:32:50;5.40;99.90
68385;DHT22;55336;43.062;25.626;2022-12-07T00:35:16;5.40;99.90
68385;DHT22;55336;43.062;25.626;2022-12-07T00:37:42;5.40;99.90
68385;DHT22;55336;43.062;25.626;2022-12-07T00:40:09;5.40;99.90
68385;DHT22;55336;43.062;25.626;2022-12-07T00:42:35;5.40;99.90
68385;DHT22;55336;43.062;25.626;2022-12-07T00:45:01;5.50;99.90
68385;DHT22;55336;43.062;25.626;2022-12-07T00:47:26;5.50;99.90
68385;DHT22;55336;43.062;25.626;2022-12-07T00:49:52;5.50;99.90
68385;DHT22;55336;43.062;25.626;2022-12-07T00:52:19;5.60;99.90
68385;DHT22;55336;43.062;25.626;2022-12-07T00:54:45;5.60;99.90
68385;DHT22;55336;43.062;25.626;2022-12-07T00:57:11;5.60;99.90
68385;DHT22;55336;43.062;25.626;2022-12-07T00:59:37;5.60;99.90
68385;DHT22;55336;43.062;25.626;2022-12-07T01:02:03;5.60;99.90
68385;DHT22;55336;43.062;25.626;2022-12-07T01:04:29;5.70;99.90
68385;DHT22;55336;43.062;25.626;2022-12-07T01:06:55;5.70;99.90
68385;DHT22;55336;43.062;25.626;2022-12-07T01:09:21;5.60;99.90
68385;DHT22;55336;43.062;25.626;2022-12-07T01:11:50;5.60;99.90
68385;DHT22;55336;43.062;25.626;2022-12-07T01:14:15;5.70;99.90
68385;DHT22;55336;43.062;25.626;2022-12-07T01:16:41;5.70;99.90
68385;DHT22;55336;43.062;25.626;2022-12-07T01:19:07;5.70;99.90
68385;DHT22;55336;43.062;25.626;2022-12-07T01:21:36;5.70;99.90
68385;DHT22;55336;43.062;25.626;2022-12-07T01:24:06;5.70;99.90
68385;DHT22;55336;43.062;25.626;2022-12-07T01:26:32;5.70;99.90
68385;DHT22;55336;43.062;25.626;2022-12-07T01:28:59;5.70;99.90
68385;DHT22;55336;43.062;25.626;2022-12-07T01:31:27;5.70;99.90
68385;DHT22;55336;43.062;25.626;2022-12-07T01:33:55;5.70;99.90
68385;DHT22;55336;43.062;25.626;2022-12-07T01:36:27;5.70;99.90
68385;DHT22;55336;43.062;25.626;2022-12-07T01:38:59;5.70;99.90
68385;DHT22;55336;43.062;25.626;2022-12-07T01:41:29;5.60;99.90
68385;DHT22;55336;43.062;25.626;2022-12-07T01:46:46;5.60;99.90
68385;DHT22;55336;43.062;25.626;2022-12-07T01:49:21;5.60;99.90
68385;DHT22;55336;43.062;25.626;2022-12-07T01:51:49;5.60;99.90
68385;DHT22;55336;43.062;25.626;2022-12-07T01:54:17;5.60;99.90
68385;DHT22;55336;43.062;25.626;2022-12-07T01:56:49;5.60;99.90
68385;DHT22;55336;43.062;25.626;2022-12-07T01:59:21;5.60;99.90
68385;DHT22;55336;43.062;25.626;2022-12-07T02:01:50;5.50;99.90
68385;DHT22;55336;43.062;25.626;2022-12-07T02:04:18;5.60;99.90
68385;DHT22;55336;43.062;25.626;2022-12-07T02:06:45;5.60;99.90
68385;DHT22;55336;43.062;25.626;2022-12-07T02:09:14;5.60;99.90
68385;DHT22;55336;43.062;25.626;2022-12-07T02:11:41;5.50;99.90
68385;DHT22;55336;43.062;25.626;2022-12-07T02:14:09;5.50;99.90
68385;DHT22;55336;43.062;25.626;2022-12-07T02:26:18;5.60;99.90
68385;DHT22;55336;43.062;25.626;2022-12-07T02:31:28;5.50;99.90
68385;DHT22;55336;43.062;25.626;2022-12-07T02:34:12;5.60;99.90
68385;DHT22;55336;43.062;25.626;2022-12-07T02:36:50;5.50;99.90
68385;DHT22;55336;43.062;25.626;2022-12-07T02:39:28;5.60;99.90
68385;DHT22;55336;43.062;25.626;2022-12-07T02:42:30;5.60;99.90
68385;DHT22;55336;43.062;25.626;2022-12-07T02:44:52;5.60;99.90
68385;DHT22;55336;43.062;25.626;2022-12-07T02:47:20;5.50;99.90
68385;DHT22;55336;43.062;25.626;2022-12-07T02:49:47;5.60;99.90
68385;DHT22;55336;43.062;25.626;2022-12-07T02:52:15;5.50;99.90
68385;DHT22;55336;43.062;25.626;2022-12-07T02:54:41;5.50;99.90
68385;DHT22;55336;43.062;25.626;2022-12-07T02:57:42;5.40;99.90
68385;DHT22;55336;43.062;25.626;2022-12-07T03:00:15;5.40;99.90
68385;DHT22;55336;43.062;25.626;2022-12-07T03:11:23;5.30;99.90
68385;DHT22;55336;43.062;25.626;2022-12-07T03:14:23;5.30;99.90
68385;DHT22;55336;43.062;25.626;2022-12-07T03:17:12;5.30;99.90
68385;DHT22;55336;43.062;25.626;2022-12-07T03:19:40;5.20;99.90
68385;DHT22;55336;43.062;25.626;2022-12-07T03:22:12;5.30;99.90
68385;DHT22;55336;43.062;25.626;2022-12-07T03:24:52;5.20;99.90
68385;DHT22;55336;43.062;25.626;2022-12-07T03:27:31;5.20;99.90
68385;DHT22;55336;43.062;25.626;2022-12-07T03:30:02;5.20;99.90
68385;DHT22;55336;43.062;25.626;2022-12-07T03:35:37;5.10;99.90
68385;DHT22;55336;43.062;25.626;2022-12-07T03:38:31;5.10;99.90
68385;DHT22;55336;43.062;25.626;2022-12-07T03:41:16;5.10;99.90
68385;DHT22;55336;43.062;25.626;2022-12-07T03:43:44;5.20;99.90
68385;DHT22;55336;43.062;25.626;2022-12-07T03:46:30;5.10;99.90
68385;DHT22;55336;43.062;25.626;2022-12-07T03:49:43;5.20;99.90
68385;DHT22;55336;43.062;25.626;2022-12-07T03:52:34;5.20;99.90
68385;DHT22;55336;43.062;25.626;2022-12-07T03:55:35;5.20;99.90
68385;DHT22;55336;43.062;25.626;2022-12-07T03:58:07;5.20;99.90
68385;DHT22;55336;43.062;25.626;2022-12-07T04:00:37;5.10;99.90
68385;DHT22;55336;43.062;25.626;2022-12-07T04:03:03;5.20;99.90
68385;DHT22;55336;43.062;25.626;2022-12-07T04:05:29;5.20;99.90
68385;DHT22;55336;43.062;25.626;2022-12-07T04:07:58;5.10;99.90
68385;DHT22;55336;43.062;25.626;2022-12-07T04:10:24;5.10;99.90
68385;DHT22;55336;43.062;25.626;2022-12-07T04:12:50;5.10;99.90
68385;DHT22;55336;43.062;25.626;2022-12-07T04:15:16;5.20;99.90
68385;DHT22;55336;43.062;25.626;2022-12-07T04:17:42;5.10;99.90
68385;DHT22;55336;43.062;25.626;2022-12-07T04:20:11;5.10;99.90
68385;DHT22;55336;43.062;25.626;2022-12-07T04:22:37;5.10;99.90
68385;DHT22;55336;43.062;25.626;2022-12-07T04:25:04;5.20;99.90
68385;DHT22;55336;43.062;25.626;2022-12-07T04:27:32;5.20;99.90
68385;DHT22;55336;43.062;25.626;2022-12-07T04:29:58;5.20;99.90
68385;DHT22;55336;43.062;25.626;2022-12-07T04:32:24;5.30;99.90
68385;DHT22;55336;43.062;25.626;2022-12-07T04:34:50;5.30;99.90
68385;DHT22;55336;43.062;25.626;2022-12-07T04:37:19;5.20;99.90
68385;DHT22;55336;43.062;25.626;2022-12-07T04:39:46;5.30;99.90
68385;DHT22;55336;43.062;25.626;2022-12-07T04:42:12;5.30;99.90
68385;DHT22;55336;43.062;25.626;2022-12-07T04:44:41;5.30;99.90
68385;DHT22;55336;43.062;25.626;2022-12-07T04:47:07;5.30;99.90
68385;DHT22;55336;43.062;25.626;2022-12-07T04:49:33;5.30;99.90
68385;DHT22;55336;43.062;25.626;2022-12-07T04:52:00;5.30;99.90
68385;DHT22;55336;43.062;25.626;2022-12-07T04:54:26;5.30;99.90
68385;DHT22;55336;43.062;25.626;2022-12-07T04:56:52;5.30;99.90
68385;DHT22;55336;43.062;25.626;2022-12-07T04:59:18;5.30;99.90
68385;DHT22;55336;43.062;25.626;2022-12-07T05:01:44;5.30;99.90
68385;DHT22;55336;43.062;25.626;2022-12-07T05:04:10;5.30;99.90
68385;DHT22;55336;43.062;25.626;2022-12-07T05:06:36;5.30;99.90
68385;DHT22;55336;43.062;25.626;2022-12-07T05:09:03;5.30;99.90
68385;DHT22;55336;43.062;25.626;2022-12-07T05:11:30;5.20;99.90
68385;DHT22;55336;43.062;25.626;2022-12-07T05:14:12;5.20;99.90
68385;DHT22;55336;43.062;25.626;2022-12-07T05:16:39;5.20;99.90
68385;DHT22;55336;43.062;25.626;2022-12-07T05:19:06;5.20;99.90
68385;DHT22;55336;43.062;25.626;2022-12-07T05:21:34;5.10;99.90
68385;DHT22;55336;43.062;25.626;2022-12-07T05:24:00;5.10;99.90
68385;DHT22;55336;43.062;25.626;2022-12-07T05:26:27;5.10;99.90
68385;DHT22;55336;43.062;25.626;2022-12-07T05:28:54;5.10;99.90
68385;DHT22;55336;43.062;25.626;2022-12-07T05:31:20;5.00;99.90
68385;DHT22;55336;43.062;25.626;2022-12-07T05:33:47;5.00;99.90
68385;DHT22;55336;43.062;25.626;2022-12-07T05:36:13;4.90;99.90
68385;DHT22;55336;43.062;25.626;2022-12-07T05:38:39;4.80;99.90
68385;DHT22;55336;43.062;25.626;2022-12-07T05:41:08;4.80;99.90
68385;DHT22;55336;43.062;25.626;2022-12-07T05:43:55;4.80;99.90
68385;DHT22;55336;43.062;25.626;2022-12-07T05:46:21;4.80;99.90
68385;DHT22;55336;43.062;25.626;2022-12-07T05:48:47;4.80;99.90
68385;DHT22;55336;43.062;25.626;2022-12-07T05:51:13;4.70;99.90
68385;DHT22;55336;43.062;25.626;2022-12-07T05:53:39;4.60;99.90
68385;DHT22;55336;43.062;25.626;2022-12-07T05:56:06;4.20;99.90
68385;DHT22;55336;43.062;25.626;2022-12-07T05:58:32;4.60;99.90
68385;DHT22;55336;43.062;25.626;2022-12-07T06:01:16;4.50;99.90
68385;DHT22;55336;43.062;25.626;2022-12-07T06:03:42;4.50;99.90
68385;DHT22;55336;43.062;25.626;2022-12-07T06:06:08;4.40;99.90
68385;DHT22;55336;43.062;25.626;2022-12-07T06:08:34;4.40;99.90
68385;DHT22;55336;43.062;25.626;2022-12-07T06:11:04;4.40;99.90
68385;DHT22;55336;43.062;25.626;2022-12-07T06:13:49;4.40;99.90
68385;DHT22;55336;43.062;25.626;2022-12-07T06:16:17;4.40;99.90
68385;DHT22;55336;43.062;25.626;2022-12-07T06:18:43;4.40;99.90
68385;DHT22;55336;43.062;25.626;2022-12-07T06:21:09;4.40;99.90
68385;DHT22;55336;43.062;25.626;2022-12-07T06:23:35;4.40;99.90
68385;DHT22;55336;43.062;25.626;2022-12-07T06:26:04;4.50;99.90
68385;DHT22;55336;43.062;25.626;2022-12-07T06:28:30;4.60;99.90
68385;DHT22;55336;43.062;25.626;2022-12-07T06:31:02;4.70;99.90
68385;DHT22;55336;43.062;25.626;2022-12-07T06:33:28;4.70;99.90
68385;DHT22;55336;43.062;25.626;2022-12-07T06:35:55;4.80;99.90
68385;DHT22;55336;43.062;25.626;2022-12-07T06:38:21;4.90;99.90
68385;DHT22;55336;43.062;25.626;2022-12-07T06:40:47;4.90;99.90
68385;DHT22;55336;43.062;25.626;2022-12-07T06:43:13;5.10;99.90
68385;DHT22;55336;43.062;25.626;2022-12-07T06:45:41;5.20;99.90
68385;DHT22;55336;43.062;25.626;2022-12-07T06:48:07;5.20;99.90
68385;DHT22;55336;43.062;25.626;2022-12-07T06:50:33;5.30;99.90
68385;DHT22;55336;43.062;25.626;2022-12-07T06:52:59;5.30;99.90
68385;DHT22;55336;43.062;25.626;2022-12-07T06:55:25;5.40;99.90
68385;DHT22;55336;43.062;25.626;2022-12-07T06:57:50;5.60;99.90
68385;DHT22;55336;43.062;25.626;2022-12-07T07:00:17;5.70;99.90
68385;DHT22;55336;43.062;25.626;2022-12-07T07:02:42;5.80;99.90
68385;DHT22;55336;43.062;25.626;2022-12-07T07:05:08;5.80;99.90
68385;DHT22;55336;43.062;25.626;2022-12-07T07:07:34;5.90;99.90
68385;DHT22;55336;43.062;25.626;2022-12-07T07:10:00;5.90;99.90
68385;DHT22;55336;43.062;25.626;2022-12-07T07:12:26;5.80;99.90
68385;DHT22;55336;43.062;25.626;2022-12-07T07:14:51;5.80;99.90
68385;DHT22;55336;43.062;25.626;2022-12-07T07:17:17;5.80;99.90
68385;DHT22;55336;43.062;25.626;2022-12-07T07:19:43;5.80;99.90
68385;DHT22;55336;43.062;25.626;2022-12-07T07:22:09;5.90;99.90
68385;DHT22;55336;43.062;25.626;2022-12-07T07:24:35;6.10;99.90
68385;DHT22;55336;43.062;25.626;2022-12-07T07:27:00;6.20;99.90
68385;DHT22;55336;43.062;25.626;2022-12-07T07:29:26;6.30;99.90
68385;DHT22;55336;43.062;25.626;2022-12-07T07:31:52;6.40;99.90
68385;DHT22;55336;43.062;25.626;2022-12-07T07:34:18;6.60;99.90
68385;DHT22;55336;43.062;25.626;2022-12-07T07:36:44;6.70;99.90
68385;DHT22;55336;43.062;25.626;2022-12-07T07:39:10;6.90;99.90
68385;DHT22;55336;43.062;25.626;2022-12-07T07:41:38;7.00;99.90
68385;DHT22;55336;43.062;25.626;2022-12-07T07:44:03;7.10;99.90
68385;DHT22;55336;43.062;25.626;2022-12-07T07:46:29;7.10;99.90
68385;DHT22;55336;43.062;25.626;2022-12-07T07:48:55;7.10;99.90
68385;DHT22;55336;43.062;25.626;2022-12-07T07:51:21;7.30;99.90
68385;DHT22;55336;43.062;25.626;2022-12-07T07:53:47;7.50;99.90
68385;DHT22;55336;43.062;25.626;2022-12-07T07:56:12;7.60;99.90
68385;DHT22;55336;43.062;25.626;2022-12-07T07:58:38;7.50;99.90
68385;DHT22;55336;43.062;25.626;2022-12-07T08:01:07;7.50;99.90
68385;DHT22;55336;43.062;25.626;2022-12-07T08:03:34;7.60;99.90
68385;DHT22;55336;43.062;25.626;2022-12-07T08:05:59;7.60;99.90
68385;DHT22;55336;43.062;25.626;2022-12-07T08:08:27;7.60;99.90
68385;DHT22;55336;43.062;25.626;2022-12-07T08:10:52;7.60;99.90
68385;DHT22;55336;43.062;25.626;2022-12-07T08:13:18;7.50;99.90
68385;DHT22;55336;43.062;25.626;2022-12-07T08:15:44;7.50;99.90
68385;DHT22;55336;43.062;25.626;2022-12-07T08:18:11;7.60;99.90
68385;DHT22;55336;43.062;25.626;2022-12-07T08:20:38;7.90;99.90
68385;DHT22;55336;43.062;25.626;2022-12-07T08:23:06;8.30;99.90
68385;DHT22;55336;43.062;25.626;2022-12-07T08:25:33;8.40;99.90
68385;DHT22;55336;43.062;25.626;2022-12-07T08:27:59;8.70;99.90
68385;DHT22;55336;43.062;25.626;2022-12-07T08:30:26;8.70;99.90
68385;DHT22;55336;43.062;25.626;2022-12-07T08:32:52;8.90;99.90
68385;DHT22;55336;43.062;25.626;2022-12-07T08:35:18;9.20;99.90
68385;DHT22;55336;43.062;25.626;2022-12-07T08:37:44;9.40;99.90
68385;DHT22;55336;43.062;25.626;2022-12-07T08:40:10;9.50;99.90
68385;DHT22;55336;43.062;25.626;2022-12-07T08:42:37;9.30;99.90
68385;DHT22;55336;43.062;25.626;2022-12-07T08:45:07;9.20;99.90
68385;DHT22;55336;43.062;25.626;2022-12-07T08:47:40;8.90;99.90
68385;DHT22;55336;43.062;25.626;2022-12-07T08:50:07;8.60;99.90
68385;DHT22;55336;43.062;25.626;2022-12-07T08:52:36;8.80;99.90
68385;DHT22;55336;43.062;25.626;2022-12-07T08:55:03;9.20;99.90
68385;DHT22;55336;43.062;25.626;2022-12-07T08:57:32;9.60;99.90
68385;DHT22;55336;43.062;25.626;2022-12-07T08:59:59;10.30;99.90
68385;DHT22;55336;43.062;25.626;2022-12-07T09:02:24;10.30;99.90
68385;DHT22;55336;43.062;25.626;2022-12-07T09:04:50;10.00;99.90
68385;DHT22;55336;43.062;25.626;2022-12-07T09:07:16;9.90;99.90
68385;DHT22;55336;43.062;25.626;2022-12-07T09:09:42;10.00;99.90
68385;DHT22;55336;43.062;25.626;2022-12-07T09:12:07;10.00;99.90
68385;DHT22;55336;43.062;25.626;2022-12-07T09:14:33;9.90;99.90
68385;DHT22;55336;43.062;25.626;2022-12-07T09:17:06;10.00;99.90
68385;DHT22;55336;43.062;25.626;2022-12-07T09:19:32;10.00;99.90
68385;DHT22;55336;43.062;25.626;2022-12-07T09:21:58;10.10;99.90
68385;DHT22;55336;43.062;25.626;2022-12-07T09:24:23;10.30;99.90
68385;DHT22;55336;43.062;25.626;2022-12-07T09:26:49;10.60;99.90
68385;DHT22;55336;43.062;25.626;2022-12-07T09:29:15;10.70;99.90
68385;DHT22;55336;43.062;25.626;2022-12-07T09:31:40;10.80;99.90
68385;DHT22;55336;43.062;25.626;2022-12-07T09:34:06;10.80;99.90
68385;DHT22;55336;43.062;25.626;2022-12-07T09:36:32;10.70;99.90
68385;DHT22;55336;43.062;25.626;2022-12-07T09:38:58;10.70;99.90
68385;DHT22;55336;43.062;25.626;2022-12-07T09:41:26;10.70;99.90
68385;DHT22;55336;43.062;25.626;2022-12-07T09:44:02;10.60;99.90
68385;DHT22;55336;43.062;25.626;2022-12-07T09:46:31;10.60;99.90
68385;DHT22;55336;43.062;25.626;2022-12-07T09:48:59;10.70;99.90
68385;DHT22;55336;43.062;25.626;2022-12-07T09:51:25;10.70;99.90
68385;DHT22;55336;43.062;25.626;2022-12-07T09:53:56;10.90;99.90
68385;DHT22;55336;43.062;25.626;2022-12-07T09:56:24;11.30;99.90
68385;DHT22;55336;43.062;25.626;2022-12-07T09:58:55;11.70;99.90
68385;DHT22;55336;43.062;25.626;2022-12-07T10:01:22;12.10;99.90
68385;DHT22;55336;43.062;25.626;2022-12-07T10:03:52;12.60;99.90
68385;DHT22;55336;43.062;25.626;2022-12-07T10:06:18;12.70;99.90
68385;DHT22;55336;43.062;25.626;2022-12-07T10:08:44;12.90;99.90
68385;DHT22;55336;43.062;25.626;2022-12-07T10:11:10;12.90;99.90
68385;DHT22;55336;43.062;25.626;2022-12-07T10:13:42;13.00;99.90
68385;DHT22;55336;43.062;25.626;2022-12-07T10:16:36;12.70;99.90
68385;DHT22;55336;43.062;25.626;2022-12-07T10:19:24;12.70;99.90
68385;DHT22;55336;43.062;25.626;2022-12-07T10:22:13;12.70;99.90
68385;DHT22;55336;43.062;25.626;2022-12-07T10:24:46;13.00;99.90
68385;DHT22;55336;43.062;25.626;2022-12-07T10:27:29;13.30;99.90
68385;DHT22;55336;43.062;25.626;2022-12-07T10:29:57;13.40;99.90
68385;DHT22;55336;43.062;25.626;2022-12-07T10:32:33;13.50;99.90
68385;DHT22;55336;43.062;25.626;2022-12-07T10:37:48;13.40;99.90
68385;DHT22;55336;43.062;25.626;2022-12-07T10:40:29;13.20;99.90
68385;DHT22;55336;43.062;25.626;2022-12-07T10:54:23;13.40;99.90
68385;DHT22;55336;43.062;25.626;2022-12-07T10:57:11;13.40;99.90
68385;DHT22;55336;43.062;25.626;2022-12-07T11:05:04;12.90;99.90
68385;DHT22;55336;43.062;25.626;2022-12-07T11:07:40;13.10;99.90
68385;DHT22;55336;43.062;25.626;2022-12-07T11:15:18;13.70;99.90
68385;DHT22;55336;43.062;25.626;2022-12-07T11:20:44;13.60;99.90
68385;DHT22;55336;43.062;25.626;2022-12-07T11:36:47;13.70;99.90
68385;DHT22;55336;43.062;25.626;2022-12-07T11:41:42;13.90;99.90
68385;DHT22;55336;43.062;25.626;2022-12-07T11:44:13;14.30;99.90
68385;DHT22;55336;43.062;25.626;2022-12-07T11:46:49;14.50;99.90
68385;DHT22;55336;43.062;25.626;2022-12-07T11:49:40;14.80;99.90
68385;DHT22;55336;43.062;25.626;2022-12-07T11:52:09;15.00;99.90
68385;DHT22;55336;43.062;25.626;2022-12-07T11:54:42;15.00;99.90
68385;DHT22;55336;43.062;25.626;2022-12-07T11:57:16;14.70;99.90
68385;DHT22;55336;43.062;25.626;2022-12-07T11:59:51;14.70;99.90
68385;DHT22;55336;43.062;25.626;2022-12-07T12:02:28;14.80;99.90
68385;DHT22;55336;43.062;25.626;2022-12-07T12:07:39;14.90;99.90
68385;DHT22;55336;43.062;25.626;2022-12-07T12:18:36;14.60;99.90
68385;DHT22;55336;43.062;25.626;2022-12-07T12:21:17;14.70;99.90
68385;DHT22;55336;43.062;25.626;2022-12-07T12:23:54;14.80;99.90
68385;DHT22;55336;43.062;25.626;2022-12-07T12:26:26;14.90;99.90
68385;DHT22;55336;43.062;25.626;2022-12-07T12:29:04;15.20;99.90
68385;DHT22;55336;43.062;25.626;2022-12-07T12:31:34;15.40;99.90
68385;DHT22;55336;43.062;25.626;2022-12-07T12:34:04;15.50;99.90
68385;DHT22;55336;43.062;25.626;2022-12-07T12:36:44;15.50;99.90
68385;DHT22;55336;43.062;25.626;2022-12-07T12:51:47;15.70;99.90
68385;DHT22;55336;43.062;25.626;2022-12-07T12:54:18;15.90;99.90
68385;DHT22;55336;43.062;25.626;2022-12-07T12:59:28;16.00;97.70
68385;DHT22;55336;43.062;25.626;2022-12-07T13:13:08;14.90;99.90
68385;DHT22;55336;43.062;25.626;2022-12-07T13:34:04;13.50;99.90
68385;DHT22;55336;43.062;25.626;2022-12-07T13:36:37;13.30;99.90
68385;DHT22;55336;43.062;25.626;2022-12-07T13:39:21;13.10;99.90
68385;DHT22;55336;43.062;25.626;2022-12-07T13:41:53;12.90;99.90
68385;DHT22;55336;43.062;25.626;2022-12-07T13:44:21;12.80;99.90
68385;DHT22;55336;43.062;25.626;2022-12-07T13:49:54;12.50;99.90
68385;DHT22;55336;43.062;25.626;2022-12-07T13:52:30;12.30;99.90
68385;DHT22;55336;43.062;25.626;2022-12-07T13:55:05;12.20;99.90
68385;DHT22;55336;43.062;25.626;2022-12-07T13:57:37;12.10;99.90
68385;DHT22;55336;43.062;25.626;2022-12-07T14:00:03;11.90;99.90
68385;DHT22;55336;43.062;25.626;2022-12-07T14:02:32;11.80;99.90
68385;DHT22;55336;43.062;25.626;2022-12-07T14:05:23;11.70;99.90
68385;DHT22;55336;43.062;25.626;2022-12-07T14:07:54;11.50;99.90
68385;DHT22;55336;43.062;25.626;2022-12-07T14:12:54;11.20;99.90
68385;DHT22;55336;43.062;25.626;2022-12-07T14:15:23;11.10;99.90
68385;DHT22;55336;43.062;25.626;2022-12-07T14:17:51;11.00;99.90
68385;DHT22;55336;43.062;25.626;2022-12-07T14:20:39;10.90;99.90
68385;DHT22;55336;43.062;25.626;2022-12-07T14:23:05;10.80;99.90
68385;DHT22;55336;43.062;25.626;2022-12-07T14:25:49;10.60;99.90
68385;DHT22;55336;43.062;25.626;2022-12-07T14:28:27;10.50;99.90
68385;DHT22;55336;43.062;25.626;2022-12-07T14:30:53;10.30;99.90
68385;DHT22;55336;43.062;25.626;2022-12-07T14:33:18;10.20;99.90
68385;DHT22;55336;43.062;25.626;2022-12-07T14:35:45;10.10;99.90
68385;DHT22;55336;43.062;25.626;2022-12-07T14:38:11;9.90;99.90
68385;DHT22;55336;43.062;25.626;2022-12-07T14:40:39;10.00;99.90
68385;DHT22;55336;43.062;25.626;2022-12-07T14:43:09;9.70;99.90
68385;DHT22;55336;43.062;25.626;2022-12-07T14:45:35;9.50;99.90
68385;DHT22;55336;43.062;25.626;2022-12-07T14:48:01;9.30;99.90
68385;DHT22;55336;43.062;25.626;2022-12-07T14:50:38;9.20;99.90
68385;DHT22;55336;43.062;25.626;2022-12-07T14:53:14;9.00;99.90
68385;DHT22;55336;43.062;25.626;2022-12-07T14:55:41;8.90;99.90
68385;DHT22;55336;43.062;25.626;2022-12-07T14:58:15;8.70;99.90
68385;DHT22;55336;43.062;25.626;2022-12-07T15:00:42;8.50;99.90
68385;DHT22;55336;43.062;25.626;2022-12-07T15:03:08;8.40;99.90
68385;DHT22;55336;43.062;25.626;2022-12-07T15:05:33;8.30;99.90
68385;DHT22;55336;43.062;25.626;2022-12-07T15:08:00;8.20;99.90
68385;DHT22;55336;43.062;25.626;2022-12-07T15:10:27;8.00;99.90
68385;DHT22;55336;43.062;25.626;2022-12-07T15:12:58;7.90;99.90
68385;DHT22;55336;43.062;25.626;2022-12-07T15:15:44;7.70;99.90
68385;DHT22;55336;43.062;25.626;2022-12-07T15:18:10;7.50;99.90
68385;DHT22;55336;43.062;25.626;2022-12-07T15:20:35;7.40;99.90
68385;DHT22;55336;43.062;25.626;2022-12-07T15:23:01;7.30;99.90
68385;DHT22;55336;43.062;25.626;2022-12-07T15:25:27;7.20;99.90
68385;DHT22;55336;43.062;25.626;2022-12-07T15:27:53;7.10;99.90
68385;DHT22;55336;43.062;25.626;2022-12-07T15:30:18;7.00;99.90
68385;DHT22;55336;43.062;25.626;2022-12-07T15:32:49;6.90;99.90
68385;DHT22;55336;43.062;25.626;2022-12-07T15:35:15;6.80;99.90
68385;DHT22;55336;43.062;25.626;2022-12-07T15:37:40;6.60;99.90
68385;DHT22;55336;43.062;25.626;2022-12-07T15:40:07;6.40;99.90
68385;DHT22;55336;43.062;25.626;2022-12-07T15:42:33;6.30;99.90
68385;DHT22;55336;43.062;25.626;2022-12-07T15:44:58;6.20;99.90
68385;DHT22;55336;43.062;25.626;2022-12-07T15:47:35;6.10;99.90
68385;DHT22;55336;43.062;25.626;2022-12-07T15:50:03;6.00;99.90
68385;DHT22;55336;43.062;25.626;2022-12-07T15:52:30;5.90;99.90
68385;DHT22;55336;43.062;25.626;2022-12-07T15:54:56;5.80;99.90
68385;DHT22;55336;43.062;25.626;2022-12-07T15:57:22;5.70;99.90
68385;DHT22;55336;43.062;25.626;2022-12-07T15:59:48;5.60;99.90
68385;DHT22;55336;43.062;25.626;2022-12-07T16:02:14;5.60;99.90
68385;DHT22;55336;43.062;25.626;2022-12-07T16:04:40;5.50;99.90
68385;DHT22;55336;43.062;25.626;2022-12-07T16:07:06;5.40;99.90
68385;DHT22;55336;43.062;25.626;2022-12-07T16:09:32;5.40;99.90
68385;DHT22;55336;43.062;25.626;2022-12-07T16:11:57;5.30;99.90
68385;DHT22;55336;43.062;25.626;2022-12-07T16:14:23;5.20;99.90
68385;DHT22;55336;43.062;25.626;2022-12-07T16:16:49;5.10;99.90
68385;DHT22;55336;43.062;25.626;2022-12-07T16:19:15;5.00;99.90
68385;DHT22;55336;43.062;25.626;2022-12-07T16:21:41;5.00;99.90
68385;DHT22;55336;43.062;25.626;2022-12-07T16:24:08;4.90;99.90
68385;DHT22;55336;43.062;25.626;2022-12-07T16:26:35;4.80;99.90
68385;DHT22;55336;43.062;25.626;2022-12-07T16:29:01;4.70;99.90
68385;DHT22;55336;43.062;25.626;2022-12-07T16:31:27;4.70;99.90
68385;DHT22;55336;43.062;25.626;2022-12-07T16:33:56;4.60;99.90
68385;DHT22;55336;43.062;25.626;2022-12-07T16:36:22;4.50;99.90
68385;DHT22;55336;43.062;25.626;2022-12-07T16:38:50;4.50;99.90
68385;DHT22;55336;43.062;25.626;2022-12-07T16:41:16;4.40;99.90
68385;DHT22;55336;43.062;25.626;2022-12-07T16:43:42;4.40;99.90
68385;DHT22;55336;43.062;25.626;2022-12-07T16:46:08;4.30;99.90
68385;DHT22;55336;43.062;25.626;2022-12-07T16:48:38;4.30;99.90
68385;DHT22;55336;43.062;25.626;2022-12-07T16:51:06;4.30;99.90
68385;DHT22;55336;43.062;25.626;2022-12-07T16:53:32;4.20;99.90
68385;DHT22;55336;43.062;25.626;2022-12-07T16:55:58;4.20;99.90
68385;DHT22;55336;43.062;25.626;2022-12-07T16:58:24;4.20;99.90
68385;DHT22;55336;43.062;25.626;2022-12-07T17:00:50;4.10;99.90
68385;DHT22;55336;43.062;25.626;2022-12-07T17:03:16;4.10;99.90
68385;DHT22;55336;43.062;25.626;2022-12-07T17:05:43;4.00;99.90
68385;DHT22;55336;43.062;25.626;2022-12-07T17:08:10;4.00;99.90
68385;DHT22;55336;43.062;25.626;2022-12-07T17:10:39;3.90;99.90
68385;DHT22;55336;43.062;25.626;2022-12-07T17:13:06;3.90;99.90
68385;DHT22;55336;43.062;25.626;2022-12-07T17:16:02;3.90;99.90
68385;DHT22;55336;43.062;25.626;2022-12-07T17:18:33;3.80;99.90
68385;DHT22;55336;43.062;25.626;2022-12-07T17:21:08;3.80;99.90
68385;DHT22;55336;43.062;25.626;2022-12-07T17:23:35;3.70;99.90
68385;DHT22;55336;43.062;25.626;2022-12-07T17:26:10;3.70;99.90
68385;DHT22;55336;43.062;25.626;2022-12-07T17:28:37;3.60;99.90
68385;DHT22;55336;43.062;25.626;2022-12-07T17:31:08;3.60;99.90
68385;DHT22;55336;43.062;25.626;2022-12-07T17:33:35;3.50;99.90
68385;DHT22;55336;43.062;25.626;2022-12-07T17:36:01;3.40;99.90
68385;DHT22;55336;43.062;25.626;2022-12-07T17:38:34;3.40;99.90
68385;DHT22;55336;43.062;25.626;2022-12-07T17:41:00;3.50;99.90
68385;DHT22;55336;43.062;25.626;2022-12-07T17:43:25;3.50;99.90
68385;DHT22;55336;43.062;25.626;2022-12-07T17:45:51;3.50;99.90
68385;DHT22;55336;43.062;25.626;2022-12-07T17:48:17;3.40;99.90
68385;DHT22;55336;43.062;25.626;2022-12-07T17:50:43;3.40;99.90
68385;DHT22;55336;43.062;25.626;2022-12-07T17:53:27;3.40;99.90